Time;durP1;ratioP1;P1;durP2;ratioP2;P2;SDS_P1;SDS_P2;PMS_P1;PMS_P2;Temp;Humidity;BMP_temperature;BMP_pressure;BME280_temperature;BME280_humidity;BME280_pressure;Samples;Min_cycle;Max_cycle;Signal;HPM_P1;HPM_P2
2023/04/05 00:01:25;;;;;;;;;;;15.00;68.90;;;;;;5017404;28;19917;-76
2023/04/05 00:03:53;;;;;;;;;;;14.90;68.80;;;;;;5034968;28;19925;-76
2023/04/05 00:06:25;;;;;;;;;;;14.90;68.80;;;;;;5035569;28;19921;-76
2023/04/05 00:08:54;;;;;;;;;;;14.90;68.90;;;;;;5034523;28;19943;-76
2023/04/05 00:11:21;;;;;;;;;;;14.90;69.00;;;;;;5012458;28;19947;-76
2023/04/05 00:13:47;;;;;;;;;;;14.90;69.00;;;;;;5035761;28;19917;-76
2023/04/05 00:16:13;;;;;;;;;;;14.90;69.10;;;;;;5035230;28;19921;-76
2023/04/05 00:18:44;;;;;;;;;;;14.80;69.10;;;;;;5035060;28;19921;-76
2023/04/05 00:21:13;;;;;;;;;;;14.90;69.10;;;;;;5032748;28;19931;-76
2023/04/05 00:23:40;;;;;;;;;;;14.80;69.10;;;;;;5034694;28;19932;-77
2023/04/05 00:26:06;;;;;;;;;;;14.80;69.10;;;;;;5035126;28;19952;-76
2023/04/05 00:28:32;;;;;;;;;;;14.80;69.10;;;;;;5017377;28;20338;-77
2023/04/05 00:30:57;;;;;;;;;;;14.80;69.10;;;;;;5034711;28;20284;-76
2023/04/05 00:33:24;;;;;;;;;;;14.80;69.10;;;;;;5016520;28;20426;-77
2023/04/05 00:35:50;;;;;;;;;;;14.80;69.20;;;;;;5035849;28;19925;-74
2023/04/05 00:38:16;;;;;;;;;;;14.70;69.20;;;;;;5033276;28;19921;-77
2023/04/05 00:40:41;;;;;;;;;;;14.70;69.10;;;;;;5032673;28;19921;-76
2023/04/05 00:43:07;;;;;;;;;;;14.70;69.20;;;;;;5034875;28;19921;-77
2023/04/05 00:45:33;;;;;;;;;;;14.70;69.10;;;;;;5016386;28;20135;-76
2023/04/05 00:47:59;;;;;;;;;;;14.70;69.10;;;;;;5016177;28;20446;-76
2023/04/05 00:50:29;;;;;;;;;;;14.70;69.20;;;;;;5035152;28;20004;-76
2023/04/05 00:52:56;;;;;;;;;;;14.60;69.20;;;;;;5017122;28;20011;-76
2023/04/05 00:55:21;;;;;;;;;;;14.60;69.20;;;;;;5033659;28;20015;-76
2023/04/05 00:57:48;;;;;;;;;;;14.60;69.20;;;;;;5032541;28;20031;-76
2023/04/05 01:00:15;;;;;;;;;;;14.60;69.30;;;;;;5034725;28;20383;-76
2023/04/05 01:02:45;;;;;;;;;;;14.60;69.30;;;;;;5034917;28;19925;-76
2023/04/05 01:05:29;;;;;;;;;;;14.60;69.30;;;;;;5032527;28;20501;-76
2023/04/05 01:08:03;;;;;;;;;;;14.60;69.20;;;;;;5016134;28;19916;-76
2023/04/05 01:10:32;;;;;;;;;;;14.60;69.20;;;;;;5008484;28;20278;-77
2023/04/05 01:12:57;;;;;;;;;;;14.60;69.20;;;;;;5019703;28;19957;-76
2023/04/05 01:15:23;;;;;;;;;;;14.50;69.20;;;;;;5033660;28;20299;-79
2023/04/05 01:17:52;;;;;;;;;;;14.50;69.20;;;;;;5034059;28;20256;-77
2023/04/05 01:20:19;;;;;;;;;;;14.50;69.30;;;;;;5049563;28;19921;-79
2023/04/05 01:22:45;;;;;;;;;;;14.50;69.30;;;;;;5048965;28;19963;-80
2023/04/05 01:25:30;;;;;;;;;;;14.40;69.40;;;;;;5016811;28;19917;-80
2023/04/05 01:28:14;;;;;;;;;;;14.40;69.30;;;;;;5035592;28;19940;-78
2023/04/05 01:30:48;;;;;;;;;;;14.40;69.30;;;;;;5031503;28;19929;-79
2023/04/05 01:33:34;;;;;;;;;;;14.40;69.30;;;;;;5016633;28;20403;-80
2023/04/05 01:36:30;;;;;;;;;;;14.40;69.20;;;;;;5032691;28;19955;-81
2023/04/05 01:38:56;;;;;;;;;;;14.40;69.30;;;;;;5021096;28;19967;-79
2023/04/05 01:41:22;;;;;;;;;;;14.40;69.20;;;;;;5050168;28;19929;-79
2023/04/05 01:43:48;;;;;;;;;;;14.40;69.20;;;;;;5036096;28;19921;-79
2023/04/05 01:46:14;;;;;;;;;;;14.40;69.30;;;;;;5010289;28;20387;-78
2023/04/05 01:48:40;;;;;;;;;;;14.30;69.10;;;;;;5053025;28;20399;-79
2023/04/05 01:51:06;;;;;;;;;;;14.30;69.10;;;;;;5021352;28;20008;-78
2023/04/05 01:53:32;;;;;;;;;;;14.30;69.10;;;;;;5020570;28;20561;-81
2023/04/05 01:56:01;;;;;;;;;;;14.30;69.10;;;;;;5052694;28;20051;-80
2023/04/05 01:58:27;;;;;;;;;;;14.30;69.10;;;;;;5051937;28;19963;-76
2023/04/05 02:00:54;;;;;;;;;;;14.30;69.00;;;;;;5051569;28;19975;-77
2023/04/05 02:03:21;;;;;;;;;;;14.20;68.90;;;;;;5037315;28;19929;-78
2023/04/05 02:05:46;;;;;;;;;;;14.30;69.00;;;;;;5035739;28;19978;-81
2023/04/05 02:08:13;;;;;;;;;;;14.20;69.00;;;;;;5037104;28;19921;-79
2023/04/05 02:10:40;;;;;;;;;;;14.20;68.90;;;;;;5052259;28;19917;-79
2023/04/05 02:13:05;;;;;;;;;;;14.20;68.90;;;;;;5020316;28;19975;-79
2023/04/05 02:15:34;;;;;;;;;;;14.20;68.90;;;;;;5011407;28;19921;-80
2023/04/05 02:18:03;;;;;;;;;;;14.10;68.90;;;;;;5034892;28;19921;-80
2023/04/05 02:20:29;;;;;;;;;;;14.10;68.80;;;;;;5019274;28;19921;-78
2023/04/05 02:22:55;;;;;;;;;;;14.10;68.70;;;;;;5052003;28;19920;-78
2023/04/05 02:25:21;;;;;;;;;;;14.10;68.60;;;;;;5019433;28;19917;-78
2023/04/05 02:27:47;;;;;;;;;;;14.10;68.60;;;;;;5052191;28;20387;-79
2023/04/05 02:30:14;;;;;;;;;;;14.10;68.60;;;;;;5021944;28;19921;-80
2023/04/05 02:32:47;;;;;;;;;;;14.10;68.60;;;;;;5036518;28;19921;-80
2023/04/05 02:35:13;;;;;;;;;;;14.10;68.60;;;;;;5003819;28;19924;-81
2023/04/05 02:37:38;;;;;;;;;;;14.10;68.50;;;;;;5019078;28;19982;-80
2023/04/05 02:40:05;;;;;;;;;;;14.00;68.50;;;;;;5019527;28;19971;-81
2023/04/05 02:42:30;;;;;;;;;;;14.00;68.40;;;;;;5019448;28;19929;-80
2023/04/05 02:44:56;;;;;;;;;;;14.00;68.40;;;;;;5036444;28;19978;-81
2023/04/05 02:47:22;;;;;;;;;;;14.00;68.40;;;;;;5042552;28;19928;-81
2023/04/05 02:49:57;;;;;;;;;;;13.90;68.30;;;;;;4989689;28;20455;-81
2023/04/05 02:52:25;;;;;;;;;;;13.90;68.30;;;;;;5051807;28;19921;-77
2023/04/05 02:54:51;;;;;;;;;;;13.90;68.20;;;;;;5037555;28;19927;-81
2023/04/05 02:57:23;;;;;;;;;;;13.90;68.20;;;;;;5051223;28;19945;-81
2023/04/05 02:59:59;;;;;;;;;;;13.90;68.20;;;;;;5018843;28;20482;-82
2023/04/05 03:02:27;;;;;;;;;;;13.90;68.20;;;;;;5017990;28;19929;-82
2023/04/05 03:04:54;;;;;;;;;;;13.90;68.20;;;;;;5022321;28;19916;-81
2023/04/05 03:07:24;;;;;;;;;;;13.80;68.10;;;;;;5003136;28;19921;-79
2023/04/05 03:09:51;;;;;;;;;;;13.80;68.00;;;;;;5018519;28;19927;-81
2023/04/05 03:12:17;;;;;;;;;;;13.80;68.00;;;;;;5017016;28;19921;-80
2023/04/05 03:14:45;;;;;;;;;;;13.80;67.90;;;;;;5021035;28;19926;-81
2023/04/05 03:17:14;;;;;;;;;;;13.80;67.90;;;;;;4986669;28;19964;-80
2023/04/05 03:19:44;;;;;;;;;;;13.80;67.80;;;;;;5002997;28;19924;-81
2023/04/05 03:22:17;;;;;;;;;;;13.80;67.70;;;;;;5051957;28;19921;-82
2023/04/05 03:24:43;;;;;;;;;;;13.80;67.60;;;;;;5021804;28;19928;-81
2023/04/05 03:27:13;;;;;;;;;;;13.70;67.60;;;;;;5025073;28;19976;-91
2023/04/05 03:30:06;;;;;;;;;;;13.70;67.60;;;;;;5031624;28;20065;-83
2023/04/05 03:32:36;;;;;;;;;;;13.80;67.70;;;;;;5017577;28;19932;-86
2023/04/05 03:35:28;;;;;;;;;;;13.70;67.70;;;;;;5029551;28;19928;-82
2023/04/05 03:37:54;;;;;;;;;;;13.80;67.80;;;;;;5034535;28;19978;-83
2023/04/05 03:40:21;;;;;;;;;;;13.70;67.90;;;;;;5035645;28;19924;-83
2023/04/05 03:42:49;;;;;;;;;;;13.80;67.60;;;;;;5034350;28;19940;-81
2023/04/05 03:45:15;;;;;;;;;;;13.70;67.40;;;;;;5019076;28;19960;-85
2023/04/05 03:47:41;;;;;;;;;;;13.80;67.30;;;;;;5035187;28;19920;-79
2023/04/05 03:50:07;;;;;;;;;;;13.70;67.10;;;;;;5035877;28;20530;-81
2023/04/05 03:52:33;;;;;;;;;;;13.70;67.10;;;;;;5050498;28;20192;-82
2023/04/05 03:55:00;;;;;;;;;;;13.70;67.10;;;;;;5033908;28;19964;-81
2023/04/05 03:57:28;;;;;;;;;;;13.70;67.00;;;;;;5015301;28;20419;-83
2023/04/05 03:59:57;;;;;;;;;;;13.70;67.20;;;;;;5029917;28;19921;-81
2023/04/05 04:02:28;;;;;;;;;;;13.70;67.10;;;;;;5015787;28;20471;-79
2023/04/05 04:04:54;;;;;;;;;;;13.80;67.20;;;;;;5033057;28;19963;-81
2023/04/05 04:07:20;;;;;;;;;;;13.80;67.00;;;;;;5016809;28;19921;-85
2023/04/05 04:09:46;;;;;;;;;;;13.80;66.80;;;;;;5017549;28;20627;-76
2023/04/05 04:12:13;;;;;;;;;;;13.80;66.80;;;;;;5005088;28;19980;-78
2023/04/05 04:14:48;;;;;;;;;;;13.80;66.70;;;;;;5014193;28;19960;-79
2023/04/05 04:17:35;;;;;;;;;;;13.80;66.50;;;;;;5032575;28;19921;-77
2023/04/05 04:20:26;;;;;;;;;;;13.70;66.30;;;;;;5016543;28;19929;-72
2023/04/05 04:23:13;;;;;;;;;;;13.70;66.40;;;;;;5033338;28;19925;-76
2023/04/05 04:26:08;;;;;;;;;;;13.70;66.10;;;;;;5036984;28;19921;-77
2023/04/05 04:29:00;;;;;;;;;;;13.80;66.10;;;;;;5016151;28;20036;-76
2023/04/05 04:31:57;;;;;;;;;;;13.70;66.00;;;;;;5043558;28;19917;-75
2023/04/05 04:34:53;;;;;;;;;;;13.70;66.10;;;;;;5033402;28;19986;-78
2023/04/05 04:37:36;;;;;;;;;;;13.70;66.00;;;;;;5043768;28;19968;-75
2023/04/05 04:40:21;;;;;;;;;;;13.80;66.30;;;;;;5048157;28;19948;-77
2023/04/05 04:43:16;;;;;;;;;;;13.80;66.60;;;;;;5029011;28;20859;-74
2023/04/05 04:46:09;;;;;;;;;;;13.80;67.30;;;;;;5032709;28;19932;-75
2023/04/05 04:48:53;;;;;;;;;;;13.80;68.20;;;;;;5000045;28;20505;-75
2023/04/05 04:51:36;;;;;;;;;;;13.80;68.50;;;;;;5033167;28;19960;-76
2023/04/05 04:54:02;;;;;;;;;;;13.80;68.30;;;;;;5016537;28;19927;-75
2023/04/05 04:56:27;;;;;;;;;;;13.80;68.00;;;;;;5032833;28;19933;-77
2023/04/05 04:58:55;;;;;;;;;;;13.90;67.80;;;;;;5020566;28;19987;-77
2023/04/05 05:01:23;;;;;;;;;;;13.90;68.10;;;;;;5034559;28;19964;-77
2023/04/05 05:03:50;;;;;;;;;;;13.90;67.90;;;;;;5033660;28;20445;-77
2023/04/05 05:06:23;;;;;;;;;;;13.90;68.50;;;;;;5048150;28;19925;-77
2023/04/05 05:08:49;;;;;;;;;;;14.00;67.90;;;;;;5033638;28;19928;-76
2023/04/05 05:11:15;;;;;;;;;;;14.00;67.90;;;;;;5034017;28;20593;-77
2023/04/05 05:13:41;;;;;;;;;;;14.10;67.50;;;;;;5015543;28;19972;-75
2023/04/05 05:16:08;;;;;;;;;;;14.10;67.20;;;;;;5019749;28;19963;-77
2023/04/05 05:18:34;;;;;;;;;;;14.20;66.90;;;;;;5037779;28;19921;-77
2023/04/05 05:21:00;;;;;;;;;;;14.30;66.80;;;;;;5019522;28;19928;-77
2023/04/05 05:23:26;;;;;;;;;;;14.40;66.40;;;;;;5038204;28;19929;-77
2023/04/05 05:25:56;;;;;;;;;;;14.50;65.90;;;;;;5037945;28;19916;-76
2023/04/05 05:28:23;;;;;;;;;;;14.60;65.50;;;;;;5038408;28;19916;-76
2023/04/05 05:30:49;;;;;;;;;;;14.70;65.20;;;;;;5037147;28;20011;-77
2023/04/05 05:33:15;;;;;;;;;;;14.80;64.80;;;;;;5020026;28;20464;-77
2023/04/05 05:35:41;;;;;;;;;;;14.80;64.20;;;;;;5038356;28;19925;-77
2023/04/05 05:38:06;;;;;;;;;;;14.90;63.80;;;;;;5009228;28;20003;-75
2023/04/05 05:40:32;;;;;;;;;;;15.00;63.50;;;;;;5039277;28;19939;-78
2023/04/05 05:42:58;;;;;;;;;;;15.00;63.10;;;;;;5038450;28;19929;-75
2023/04/05 05:45:24;;;;;;;;;;;15.10;62.90;;;;;;5037761;28;20379;-76
2023/04/05 05:47:50;;;;;;;;;;;15.20;62.40;;;;;;5036777;28;20591;-75
2023/04/05 05:50:16;;;;;;;;;;;15.30;62.20;;;;;;5020094;28;19921;-77
2023/04/05 05:52:41;;;;;;;;;;;15.40;61.90;;;;;;5036855;28;19917;-78
2023/04/05 05:55:08;;;;;;;;;;;15.50;61.50;;;;;;5019829;28;19970;-76
2023/04/05 05:57:35;;;;;;;;;;;15.70;61.20;;;;;;5038769;28;19975;-77
2023/04/05 06:00:01;;;;;;;;;;;15.70;60.90;;;;;;5037089;28;19921;-77
2023/04/05 06:02:37;;;;;;;;;;;15.80;60.70;;;;;;5036567;28;19983;-78
2023/04/05 06:05:03;;;;;;;;;;;15.80;60.50;;;;;;5038001;28;19924;-78
2023/04/05 06:07:29;;;;;;;;;;;15.90;60.30;;;;;;5037701;28;19933;-78
2023/04/05 06:09:55;;;;;;;;;;;16.00;60.10;;;;;;5036768;28;19965;-78
2023/04/05 06:12:21;;;;;;;;;;;16.10;60.00;;;;;;5003625;28;19925;-78
2023/04/05 06:14:47;;;;;;;;;;;16.10;59.70;;;;;;5037039;28;19998;-77
2023/04/05 06:17:12;;;;;;;;;;;16.20;59.50;;;;;;5036282;28;19922;-78
2023/04/05 06:19:38;;;;;;;;;;;16.30;59.40;;;;;;5037919;28;19924;-77
2023/04/05 06:22:04;;;;;;;;;;;16.40;59.20;;;;;;5036603;28;20004;-77
2023/04/05 06:24:30;;;;;;;;;;;16.50;59.30;;;;;;5036382;28;20319;-76
2023/04/05 06:26:57;;;;;;;;;;;16.50;58.90;;;;;;5035908;28;19925;-77
2023/04/05 06:29:23;;;;;;;;;;;16.60;59.00;;;;;;5037597;28;19921;-77
2023/04/05 06:31:48;;;;;;;;;;;16.60;58.90;;;;;;5017962;28;19917;-76
2023/04/05 06:34:14;;;;;;;;;;;16.60;58.80;;;;;;5037412;28;20384;-78
2023/04/05 06:36:40;;;;;;;;;;;16.70;58.70;;;;;;5037528;28;20274;-78
2023/04/05 06:39:06;;;;;;;;;;;16.70;58.60;;;;;;5018662;28;20047;-76
2023/04/05 06:41:31;;;;;;;;;;;16.70;58.60;;;;;;5035177;28;19929;-79
2023/04/05 06:43:57;;;;;;;;;;;16.70;58.60;;;;;;5037796;28;20027;-78
2023/04/05 06:46:23;;;;;;;;;;;16.70;58.60;;;;;;5037157;28;20319;-77
2023/04/05 06:48:50;;;;;;;;;;;16.80;58.50;;;;;;5036518;28;19928;-78
2023/04/05 06:51:16;;;;;;;;;;;16.90;58.60;;;;;;5012825;28;19920;-79
2023/04/05 06:53:42;;;;;;;;;;;16.90;58.40;;;;;;5036992;28;19921;-78
2023/04/05 06:56:07;;;;;;;;;;;17.00;58.20;;;;;;5035773;28;19932;-78
2023/04/05 06:58:33;;;;;;;;;;;17.00;58.00;;;;;;5037002;28;19946;-78
2023/04/05 07:00:59;;;;;;;;;;;17.10;58.10;;;;;;5019624;28;19925;-78
2023/04/05 07:03:25;;;;;;;;;;;17.10;58.00;;;;;;5022469;28;20363;-78
2023/04/05 07:05:55;;;;;;;;;;;17.20;57.90;;;;;;5036361;28;19982;-78
2023/04/05 07:08:22;;;;;;;;;;;17.20;57.90;;;;;;5036261;28;19959;-77
2023/04/05 07:10:49;;;;;;;;;;;17.30;57.70;;;;;;5041027;28;19917;-77
2023/04/05 07:13:15;;;;;;;;;;;17.30;58.90;;;;;;5045724;28;19920;-77
2023/04/05 07:15:42;;;;;;;;;;;17.40;60.20;;;;;;5026359;28;19929;-78
2023/04/05 07:18:08;;;;;;;;;;;17.50;60.50;;;;;;5048463;28;19921;-79
2023/04/05 07:20:33;;;;;;;;;;;17.60;60.50;;;;;;5047660;28;19958;-77
2023/04/05 07:22:59;;;;;;;;;;;17.60;60.40;;;;;;5044161;28;19928;-77
2023/04/05 07:25:25;;;;;;;;;;;17.60;60.20;;;;;;5052457;28;20343;-77
2023/04/05 07:27:51;;;;;;;;;;;17.50;58.40;;;;;;5045179;28;20517;-79
2023/04/05 07:30:17;;;;;;;;;;;17.20;57.10;;;;;;5047744;28;19964;-77
2023/04/05 07:32:43;;;;;;;;;;;17.00;56.80;;;;;;5024678;28;20003;-77
2023/04/05 07:35:09;;;;;;;;;;;16.80;56.80;;;;;;5045722;28;19928;-76
2023/04/05 07:37:36;;;;;;;;;;;16.70;56.80;;;;;;5018307;28;19917;-79
2023/04/05 07:40:02;;;;;;;;;;;16.70;57.20;;;;;;5009740;28;19922;-76
2023/04/05 07:42:28;;;;;;;;;;;16.80;56.80;;;;;;5033935;28;19975;-77
2023/04/05 07:44:54;;;;;;;;;;;16.80;56.80;;;;;;5050343;28;19921;-78
2023/04/05 07:47:20;;;;;;;;;;;16.80;57.30;;;;;;5062616;28;19921;-79
2023/04/05 07:49:45;;;;;;;;;;;16.90;57.90;;;;;;5042243;28;19948;-81
2023/04/05 07:52:11;;;;;;;;;;;16.80;57.40;;;;;;5021122;28;20284;-82
2023/04/05 07:54:40;;;;;;;;;;;16.80;57.20;;;;;;5042423;28;19947;-84
2023/04/05 07:57:06;;;;;;;;;;;16.80;57.00;;;;;;5038606;28;19956;-82
2023/04/05 07:59:32;;;;;;;;;;;16.70;56.60;;;;;;5036823;28;19956;-82
2023/04/05 08:01:57;;;;;;;;;;;16.70;57.00;;;;;;5035291;28;19921;-82
2023/04/05 08:04:25;;;;;;;;;;;16.70;57.00;;;;;;5018839;28;19963;-78
2023/04/05 08:06:51;;;;;;;;;;;16.60;56.70;;;;;;5024966;28;19921;-77
2023/04/05 08:09:17;;;;;;;;;;;16.70;56.90;;;;;;5043500;28;19941;-77
2023/04/05 08:11:43;;;;;;;;;;;16.60;56.60;;;;;;5050033;28;19946;-79
2023/04/05 08:14:09;;;;;;;;;;;16.60;56.90;;;;;;5027311;28;19937;-86
2023/04/05 08:16:35;;;;;;;;;;;16.50;56.90;;;;;;5045872;28;19917;-85
2023/04/05 08:19:01;;;;;;;;;;;16.40;57.00;;;;;;5036484;28;19921;-87
2023/04/05 08:21:27;;;;;;;;;;;16.40;57.30;;;;;;5049821;28;19927;-81
2023/04/05 08:23:52;;;;;;;;;;;16.40;57.10;;;;;;5037423;28;20003;-81
2023/04/05 08:26:18;;;;;;;;;;;16.40;57.30;;;;;;5039895;28;19920;-81
2023/04/05 08:28:44;;;;;;;;;;;16.30;57.60;;;;;;5043073;28;19951;-81
2023/04/05 08:31:10;;;;;;;;;;;16.40;57.80;;;;;;5039287;28;19920;-82
2023/04/05 08:33:36;;;;;;;;;;;16.40;57.80;;;;;;5030830;28;19929;-80
2023/04/05 08:36:03;;;;;;;;;;;16.30;57.40;;;;;;5030185;28;21148;-91
2023/04/05 08:38:29;;;;;;;;;;;16.30;57.70;;;;;;5039275;28;19927;-77
2023/04/05 08:40:54;;;;;;;;;;;16.20;57.50;;;;;;5043545;28;19916;-75
2023/04/05 08:43:39;;;;;;;;;;;16.20;57.70;;;;;;5044413;28;19929;-78
2023/04/05 08:46:07;;;;;;;;;;;16.20;57.80;;;;;;5033649;28;19920;-77
2023/04/05 08:48:35;;;;;;;;;;;16.20;57.70;;;;;;5044700;28;19920;-75
2023/04/05 08:51:01;;;;;;;;;;;16.20;58.10;;;;;;5050247;28;19921;-76
2023/04/05 08:53:27;;;;;;;;;;;16.10;57.80;;;;;;5037097;28;20011;-88
2023/04/05 08:55:55;;;;;;;;;;;16.10;58.20;;;;;;5030113;28;19948;-82
2023/04/05 08:58:21;;;;;;;;;;;16.10;58.50;;;;;;5035055;28;19917;-82
2023/04/05 09:00:49;;;;;;;;;;;16.20;58.40;;;;;;5042646;28;20331;-82
2023/04/05 09:03:16;;;;;;;;;;;16.10;57.90;;;;;;5048759;28;19925;-84
2023/04/05 09:05:47;;;;;;;;;;;16.00;57.90;;;;;;5024037;28;19949;-81
2023/04/05 09:08:13;;;;;;;;;;;16.00;58.20;;;;;;5043303;28;19927;-81
2023/04/05 09:10:39;;;;;;;;;;;16.00;58.30;;;;;;5048202;28;19916;-79
2023/04/05 09:13:05;;;;;;;;;;;16.00;58.40;;;;;;5003375;28;19920;-83
2023/04/05 09:15:31;;;;;;;;;;;16.10;58.50;;;;;;5034537;28;20474;-76
2023/04/05 09:17:57;;;;;;;;;;;16.10;58.20;;;;;;5034339;28;20067;-76
2023/04/05 09:20:23;;;;;;;;;;;16.10;58.40;;;;;;5037495;28;20020;-79
2023/04/05 09:22:49;;;;;;;;;;;16.20;58.60;;;;;;5034414;28;20015;-79
2023/04/05 09:25:45;;;;;;;;;;;16.20;58.60;;;;;;5034003;28;20456;-79
2023/04/05 09:28:11;;;;;;;;;;;16.20;58.30;;;;;;5003791;28;19972;-79
2023/04/05 09:30:37;;;;;;;;;;;16.30;58.50;;;;;;5036368;28;19929;-78
2023/04/05 09:33:06;;;;;;;;;;;16.30;58.40;;;;;;5015668;28;19921;-82
2023/04/05 09:35:32;;;;;;;;;;;16.30;58.30;;;;;;5033819;28;20346;-86
2023/04/05 09:37:59;;;;;;;;;;;16.40;58.40;;;;;;5034869;28;20063;-88
2023/04/05 09:40:45;;;;;;;;;;;16.40;58.40;;;;;;5017005;28;19917;-85
2023/04/05 09:43:33;;;;;;;;;;;16.40;58.30;;;;;;5018686;28;19929;-79
2023/04/05 09:45:59;;;;;;;;;;;16.40;58.40;;;;;;5033336;28;20455;-78
2023/04/05 09:48:43;;;;;;;;;;;16.40;57.60;;;;;;5034046;28;19947;-79
2023/04/05 09:51:09;;;;;;;;;;;16.30;57.20;;;;;;5027709;28;20013;-76
2023/04/05 09:53:35;;;;;;;;;;;16.30;57.60;;;;;;4991026;28;19921;-78
2023/04/05 09:56:10;;;;;;;;;;;16.20;57.90;;;;;;5019575;28;20012;-80
2023/04/05 09:58:35;;;;;;;;;;;16.20;58.10;;;;;;5034169;28;19940;-82
2023/04/05 10:01:03;;;;;;;;;;;16.20;57.90;;;;;;5034162;28;20399;-83
2023/04/05 10:03:29;;;;;;;;;;;16.20;58.40;;;;;;5036529;28;19929;-84
2023/04/05 10:05:55;;;;;;;;;;;16.20;58.50;;;;;;5038494;28;20432;-81
2023/04/05 10:08:22;;;;;;;;;;;16.30;58.50;;;;;;5038089;28;19925;-81
2023/04/05 10:10:48;;;;;;;;;;;16.40;58.80;;;;;;5038487;28;20474;-77
2023/04/05 10:13:15;;;;;;;;;;;16.40;58.50;;;;;;5021434;28;19926;-83
2023/04/05 10:15:44;;;;;;;;;;;16.30;58.20;;;;;;5036806;28;19921;-74
2023/04/05 10:18:13;;;;;;;;;;;16.30;58.60;;;;;;5013968;28;20343;-77
2023/04/05 10:20:40;;;;;;;;;;;16.30;58.60;;;;;;5016413;28;19921;-75
2023/04/05 10:23:08;;;;;;;;;;;16.20;59.10;;;;;;5054127;28;19925;-75
2023/04/05 10:25:33;;;;;;;;;;;16.20;58.40;;;;;;5038755;28;19923;-75
2023/04/05 10:28:04;;;;;;;;;;;16.20;58.60;;;;;;5018729;28;20384;-75
2023/04/05 10:30:40;;;;;;;;;;;16.20;58.80;;;;;;5037233;28;20319;-75
2023/04/05 10:33:21;;;;;;;;;;;16.20;58.80;;;;;;5035526;28;19921;-75
2023/04/05 10:35:56;;;;;;;;;;;16.20;58.50;;;;;;5018159;28;19925;-75
2023/04/05 10:38:24;;;;;;;;;;;16.30;58.90;;;;;;5019024;28;20304;-75
2023/04/05 10:40:52;;;;;;;;;;;16.40;59.10;;;;;;5004330;28;20021;-74
2023/04/05 10:43:20;;;;;;;;;;;16.40;59.30;;;;;;5036607;28;19921;-75
2023/04/05 10:45:47;;;;;;;;;;;16.40;58.60;;;;;;5023570;28;19925;-75
2023/04/05 10:48:20;;;;;;;;;;;16.40;58.80;;;;;;5024478;28;19953;-75
2023/04/05 10:50:46;;;;;;;;;;;16.50;59.00;;;;;;5036690;28;19928;-75
2023/04/05 10:53:12;;;;;;;;;;;16.50;58.70;;;;;;5050815;28;19921;-76
2023/04/05 10:55:38;;;;;;;;;;;16.40;58.60;;;;;;5038402;28;19916;-75
2023/04/05 10:58:04;;;;;;;;;;;16.50;58.80;;;;;;5035838;28;19927;-76
2023/04/05 11:00:31;;;;;;;;;;;16.50;58.10;;;;;;5019129;28;19920;-75
2023/04/05 11:02:56;;;;;;;;;;;16.40;58.30;;;;;;5036203;28;19929;-76
2023/04/05 11:05:30;;;;;;;;;;;16.40;58.40;;;;;;5036677;28;20300;-75
2023/04/05 11:07:59;;;;;;;;;;;16.40;58.10;;;;;;5035843;28;20355;-75
2023/04/05 11:10:25;;;;;;;;;;;16.50;58.10;;;;;;5036580;28;19940;-75
2023/04/05 11:12:51;;;;;;;;;;;16.40;58.10;;;;;;5049648;28;19983;-76
2023/04/05 11:15:31;;;;;;;;;;;16.50;58.10;;;;;;5051695;28;19925;-76
2023/04/05 11:18:06;;;;;;;;;;;16.40;57.60;;;;;;5019029;28;19948;-75
2023/04/05 11:20:44;;;;;;;;;;;16.40;57.60;;;;;;5035852;28;20038;-75
2023/04/05 11:23:11;;;;;;;;;;;16.50;58.00;;;;;;5034952;28;19968;-75
2023/04/05 11:25:38;;;;;;;;;;;16.40;57.10;;;;;;5036985;28;19929;-75
2023/04/05 11:28:04;;;;;;;;;;;16.40;57.20;;;;;;5018036;28;20307;-76
2023/04/05 11:30:55;;;;;;;;;;;16.30;57.10;;;;;;5001578;28;19922;-75
2023/04/05 11:33:39;;;;;;;;;;;16.30;57.10;;;;;;5035565;28;19929;-76
2023/04/05 11:36:05;;;;;;;;;;;16.30;57.50;;;;;;5033499;28;19968;-76
2023/04/05 11:38:31;;;;;;;;;;;16.20;56.80;;;;;;5035750;28;20447;-75
2023/04/05 11:41:06;;;;;;;;;;;16.20;57.00;;;;;;5035830;28;20016;-76
2023/04/05 11:43:34;;;;;;;;;;;16.20;56.80;;;;;;5034759;28;20496;-76
2023/04/05 11:46:01;;;;;;;;;;;16.10;57.00;;;;;;5018009;28;19957;-76
2023/04/05 11:48:27;;;;;;;;;;;16.20;57.20;;;;;;5003929;28;19971;-76
2023/04/05 11:50:53;;;;;;;;;;;16.10;57.30;;;;;;5016391;28;19926;-76
2023/04/05 11:53:20;;;;;;;;;;;16.20;57.50;;;;;;4988605;28;20012;-76
2023/04/05 11:55:47;;;;;;;;;;;16.10;57.70;;;;;;5019553;28;19917;-75
2023/04/05 11:58:13;;;;;;;;;;;16.20;57.80;;;;;;5023136;28;20400;-76
2023/04/05 12:00:40;;;;;;;;;;;16.20;58.00;;;;;;5035264;28;19921;-76
2023/04/05 12:03:05;;;;;;;;;;;16.20;58.00;;;;;;5035362;28;20327;-76
2023/04/05 12:05:44;;;;;;;;;;;16.10;58.10;;;;;;5034410;28;19925;-76
2023/04/05 12:08:10;;;;;;;;;;;16.20;58.20;;;;;;5034572;28;19921;-75
2023/04/05 12:10:36;;;;;;;;;;;16.20;58.20;;;;;;5035489;28;19924;-75
2023/04/05 12:13:02;;;;;;;;;;;16.10;58.10;;;;;;5034410;28;19921;-77
2023/04/05 12:15:27;;;;;;;;;;;16.10;58.20;;;;;;5017476;28;19925;-74
2023/04/05 12:17:53;;;;;;;;;;;16.10;57.90;;;;;;5016933;28;19928;-74
2023/04/05 12:20:20;;;;;;;;;;;16.20;59.10;;;;;;5035605;28;19921;-76
2023/04/05 12:22:47;;;;;;;;;;;16.20;58.10;;;;;;5021313;28;19920;-77
2023/04/05 12:25:13;;;;;;;;;;;16.00;57.70;;;;;;5005084;28;19920;-76
2023/04/05 12:27:39;;;;;;;;;;;16.10;58.10;;;;;;5050003;28;19932;-75
2023/04/05 12:30:10;;;;;;;;;;;16.10;58.80;;;;;;5017653;28;19921;-76
2023/04/05 12:32:51;;;;;;;;;;;16.10;58.20;;;;;;5017115;28;20458;-76
2023/04/05 12:35:18;;;;;;;;;;;16.20;58.10;;;;;;5022879;28;19951;-77
2023/04/05 12:37:45;;;;;;;;;;;16.00;58.00;;;;;;5016417;28;19979;-76
2023/04/05 12:40:11;;;;;;;;;;;16.00;57.80;;;;;;5016371;28;19913;-77
2023/04/05 12:42:38;;;;;;;;;;;16.00;58.00;;;;;;5046672;28;19933;-76
2023/04/05 12:45:08;;;;;;;;;;;16.00;57.40;;;;;;5021556;28;20378;-77
2023/04/05 12:47:34;;;;;;;;;;;15.90;57.50;;;;;;5018644;28;19928;-77
2023/04/05 12:50:10;;;;;;;;;;;15.90;57.60;;;;;;5023654;28;19917;-77
2023/04/05 12:52:36;;;;;;;;;;;15.90;57.80;;;;;;5030918;28;19913;-77
2023/04/05 12:55:02;;;;;;;;;;;15.90;58.00;;;;;;5051113;28;19976;-77
2023/04/05 12:57:30;;;;;;;;;;;15.80;57.90;;;;;;5024371;28;19920;-76
2023/04/05 12:59:56;;;;;;;;;;;15.80;58.20;;;;;;5028360;28;19921;-76
2023/04/05 13:02:22;;;;;;;;;;;15.80;58.40;;;;;;5021884;28;19987;-76
2023/04/05 13:04:48;;;;;;;;;;;15.80;58.50;;;;;;5022503;28;20388;-77
2023/04/05 13:07:13;;;;;;;;;;;15.80;58.60;;;;;;5015707;28;19913;-77
2023/04/05 13:09:39;;;;;;;;;;;15.90;58.70;;;;;;5019864;28;19928;-77
2023/04/05 13:12:05;;;;;;;;;;;15.90;58.70;;;;;;5062705;28;19921;-77
2023/04/05 13:14:31;;;;;;;;;;;15.90;58.70;;;;;;5021823;28;20008;-78
2023/04/05 13:16:57;;;;;;;;;;;15.90;58.80;;;;;;5011243;28;19929;-79
2023/04/05 13:19:22;;;;;;;;;;;15.90;58.80;;;;;;5007879;28;19925;-76
2023/04/05 13:21:48;;;;;;;;;;;16.00;58.80;;;;;;5019516;28;19921;-77
2023/04/05 13:24:14;;;;;;;;;;;16.10;58.80;;;;;;5009482;28;20446;-77
2023/04/05 13:26:40;;;;;;;;;;;16.00;58.70;;;;;;5006777;28;19921;-76
2023/04/05 13:29:07;;;;;;;;;;;16.10;58.80;;;;;;5013856;28;20395;-77
2023/04/05 13:31:32;;;;;;;;;;;16.10;58.20;;;;;;5022250;28;19917;-77
2023/04/05 13:33:58;;;;;;;;;;;16.10;58.50;;;;;;5006765;28;19921;-76
2023/04/05 13:36:25;;;;;;;;;;;16.10;58.20;;;;;;5026793;28;19929;-80
2023/04/05 13:38:51;;;;;;;;;;;16.00;57.80;;;;;;5022243;28;19927;-77
2023/04/05 13:41:16;;;;;;;;;;;15.90;57.30;;;;;;5030193;28;19932;-77
2023/04/05 13:43:42;;;;;;;;;;;15.90;57.50;;;;;;5047519;28;19927;-77
2023/04/05 13:46:08;;;;;;;;;;;15.80;57.80;;;;;;5045609;28;20474;-77
2023/04/05 13:48:34;;;;;;;;;;;15.80;57.80;;;;;;5052736;28;19927;-77
2023/04/05 13:51:00;;;;;;;;;;;15.70;58.00;;;;;;5032973;28;20341;-76
2023/04/05 13:53:26;;;;;;;;;;;15.70;58.30;;;;;;5037539;28;20331;-75
2023/04/05 13:55:51;;;;;;;;;;;15.70;58.60;;;;;;5038080;28;19917;-76
2023/04/05 13:58:17;;;;;;;;;;;15.70;58.80;;;;;;5036750;28;19913;-76
2023/04/05 14:00:43;;;;;;;;;;;15.70;58.40;;;;;;5020205;28;19966;-75
2023/04/05 14:03:09;;;;;;;;;;;15.60;58.50;;;;;;5050425;28;20019;-76
2023/04/05 14:05:34;;;;;;;;;;;15.60;58.60;;;;;;5019427;28;20446;-76
2023/04/05 14:08:00;;;;;;;;;;;15.60;58.40;;;;;;5037382;28;19916;-77
2023/04/05 14:10:26;;;;;;;;;;;15.50;58.40;;;;;;5037027;28;20588;-75
2023/04/05 14:12:52;;;;;;;;;;;15.40;58.40;;;;;;5037209;28;20304;-75
2023/04/05 14:15:18;;;;;;;;;;;15.40;59.30;;;;;;5037689;28;19928;-75
2023/04/05 14:17:44;;;;;;;;;;;15.40;58.90;;;;;;5037646;28;19932;-77
2023/04/05 14:20:10;;;;;;;;;;;15.40;59.00;;;;;;5038401;28;19920;-75
2023/04/05 14:22:36;;;;;;;;;;;15.30;59.10;;;;;;5020365;28;20046;-75
2023/04/05 14:25:03;;;;;;;;;;;15.40;59.30;;;;;;5037794;28;19925;-77